sensor_id;sensor_type;location;lat;lon;timestamp;P1;durP1;ratioP1;P2;durP2;ratioP2
16866;SDS011;8550;52.596;13.320;2023-06-24T00:02:17;12.18;;;5.50;;
16866;SDS011;8550;52.596;13.320;2023-06-24T00:07:25;10.57;;;5.67;;
16866;SDS011;8550;52.596;13.320;2023-06-24T00:12:27;12.98;;;6.10;;
16866;SDS011;8550;52.596;13.320;2023-06-24T00:17:29;10.80;;;5.95;;
16866;SDS011;8550;52.596;13.320;2023-06-24T00:22:32;10.97;;;5.73;;
16866;SDS011;8550;52.596;13.320;2023-06-24T00:27:35;14.63;;;6.30;;
16866;SDS011;8550;52.596;13.320;2023-06-24T00:32:37;13.90;;;6.07;;
16866;SDS011;8550;52.596;13.320;2023-06-24T00:37:40;11.05;;;6.05;;
16866;SDS011;8550;52.596;13.320;2023-06-24T00:42:45;13.27;;;5.97;;
16866;SDS011;8550;52.596;13.320;2023-06-24T00:47:47;11.30;;;6.50;;
16866;SDS011;8550;52.596;13.320;2023-06-24T00:52:51;14.50;;;7.13;;
16866;SDS011;8550;52.596;13.320;2023-06-24T00:57:52;12.90;;;7.17;;
16866;SDS011;8550;52.596;13.320;2023-06-24T01:02:54;11.38;;;6.22;;
16866;SDS011;8550;52.596;13.320;2023-06-24T01:07:59;12.27;;;7.20;;
16866;SDS011;8550;52.596;13.320;2023-06-24T01:13:01;14.63;;;8.57;;
16866;SDS011;8550;52.596;13.320;2023-06-24T01:18:05;14.13;;;7.63;;
16866;SDS011;8550;52.596;13.320;2023-06-24T01:28:52;15.50;;;7.82;;
16866;SDS011;8550;52.596;13.320;2023-06-24T01:34:21;15.13;;;7.40;;
16866;SDS011;8550;52.596;13.320;2023-06-24T01:39:26;14.13;;;7.40;;
16866;SDS011;8550;52.596;13.320;2023-06-24T01:44:32;13.52;;;7.85;;
16866;SDS011;8550;52.596;13.320;2023-06-24T01:49:38;16.53;;;7.83;;
16866;SDS011;8550;52.596;13.320;2023-06-24T01:54:42;16.40;;;8.73;;
16866;SDS011;8550;52.596;13.320;2023-06-24T01:59:47;12.90;;;7.40;;
16866;SDS011;8550;52.596;13.320;2023-06-24T02:04:53;13.73;;;8.27;;
16866;SDS011;8550;52.596;13.320;2023-06-24T02:09:57;14.50;;;7.87;;
16866;SDS011;8550;52.596;13.320;2023-06-24T02:15:01;17.35;;;8.32;;
16866;SDS011;8550;52.596;13.320;2023-06-24T02:20:07;16.42;;;8.68;;
16866;SDS011;8550;52.596;13.320;2023-06-24T02:25:11;13.10;;;6.90;;
16866;SDS011;8550;52.596;13.320;2023-06-24T02:30:14;13.68;;;8.23;;
16866;SDS011;8550;52.596;13.320;2023-06-24T02:35:18;15.43;;;7.95;;
16866;SDS011;8550;52.596;13.320;2023-06-24T02:40:20;14.20;;;7.57;;
16866;SDS011;8550;52.596;13.320;2023-06-24T02:45:22;12.70;;;6.85;;
16866;SDS011;8550;52.596;13.320;2023-06-24T02:50:25;12.43;;;7.10;;
16866;SDS011;8550;52.596;13.320;2023-06-24T02:55:28;11.87;;;6.83;;
16866;SDS011;8550;52.596;13.320;2023-06-24T03:00:30;13.87;;;7.77;;
16866;SDS011;8550;52.596;13.320;2023-06-24T03:05:35;13.30;;;6.82;;
16866;SDS011;8550;52.596;13.320;2023-06-24T03:10:37;14.65;;;7.57;;
16866;SDS011;8550;52.596;13.320;2023-06-24T03:15:39;11.57;;;6.13;;
16866;SDS011;8550;52.596;13.320;2023-06-24T03:20:42;11.55;;;6.63;;
16866;SDS011;8550;52.596;13.320;2023-06-24T03:25:45;15.20;;;6.43;;
16866;SDS011;8550;52.596;13.320;2023-06-24T03:30:47;13.00;;;6.17;;
16866;SDS011;8550;52.596;13.320;2023-06-24T03:35:51;19.50;;;7.10;;
16866;SDS011;8550;52.596;13.320;2023-06-24T03:40:53;11.85;;;6.68;;
16866;SDS011;8550;52.596;13.320;2023-06-24T03:45:54;13.73;;;6.53;;
16866;SDS011;8550;52.596;13.320;2023-06-24T03:50:58;12.93;;;6.70;;
16866;SDS011;8550;52.596;13.320;2023-06-24T03:56:00;13.88;;;6.50;;
16866;SDS011;8550;52.596;13.320;2023-06-24T04:01:02;12.15;;;6.90;;
16866;SDS011;8550;52.596;13.320;2023-06-24T04:06:06;10.50;;;5.53;;
16866;SDS011;8550;52.596;13.320;2023-06-24T04:11:07;18.05;;;7.13;;
16866;SDS011;8550;52.596;13.320;2023-06-24T04:16:10;13.45;;;6.55;;
16866;SDS011;8550;52.596;13.320;2023-06-24T04:21:13;13.37;;;7.67;;
16866;SDS011;8550;52.596;13.320;2023-06-24T04:26:15;14.93;;;6.15;;
16866;SDS011;8550;52.596;13.320;2023-06-24T04:31:17;12.77;;;6.45;;
16866;SDS011;8550;52.596;13.320;2023-06-24T04:36:20;15.83;;;6.87;;
16866;SDS011;8550;52.596;13.320;2023-06-24T04:41:22;12.07;;;6.50;;
16866;SDS011;8550;52.596;13.320;2023-06-24T04:46:25;17.65;;;7.45;;
16866;SDS011;8550;52.596;13.320;2023-06-24T04:51:28;15.80;;;6.88;;
16866;SDS011;8550;52.596;13.320;2023-06-24T04:56:30;13.13;;;6.63;;
16866;SDS011;8550;52.596;13.320;2023-06-24T05:01:32;11.68;;;6.82;;
16866;SDS011;8550;52.596;13.320;2023-06-24T05:06:36;13.23;;;6.07;;
16866;SDS011;8550;52.596;13.320;2023-06-24T05:11:38;13.70;;;6.60;;
16866;SDS011;8550;52.596;13.320;2023-06-24T05:16:39;12.52;;;6.13;;
16866;SDS011;8550;52.596;13.320;2023-06-24T05:21:43;14.27;;;6.90;;
16866;SDS011;8550;52.596;13.320;2023-06-24T05:26:45;14.03;;;6.43;;
16866;SDS011;8550;52.596;13.320;2023-06-24T05:31:49;17.33;;;6.83;;
16866;SDS011;8550;52.596;13.320;2023-06-24T05:36:52;11.80;;;5.85;;
16866;SDS011;8550;52.596;13.320;2023-06-24T05:41:55;15.70;;;6.88;;
16866;SDS011;8550;52.596;13.320;2023-06-24T05:46:56;9.40;;;4.97;;
16866;SDS011;8550;52.596;13.320;2023-06-24T05:52:00;11.30;;;5.53;;
16866;SDS011;8550;52.596;13.320;2023-06-24T05:57:02;12.20;;;5.75;;
16866;SDS011;8550;52.596;13.320;2023-06-24T06:02:06;12.03;;;5.70;;
16866;SDS011;8550;52.596;13.320;2023-06-24T06:07:09;11.75;;;5.53;;
16866;SDS011;8550;52.596;13.320;2023-06-24T06:12:12;13.63;;;5.90;;
16866;SDS011;8550;52.596;13.320;2023-06-24T06:17:14;10.33;;;5.37;;
16866;SDS011;8550;52.596;13.320;2023-06-24T06:22:17;11.20;;;6.30;;
16866;SDS011;8550;52.596;13.320;2023-06-24T06:27:19;35.17;;;15.38;;
16866;SDS011;8550;52.596;13.320;2023-06-24T06:32:21;36.00;;;15.43;;
16866;SDS011;8550;52.596;13.320;2023-06-24T06:37:24;11.47;;;5.30;;
16866;SDS011;8550;52.596;13.320;2023-06-24T06:42:28;17.15;;;5.80;;
16866;SDS011;8550;52.596;13.320;2023-06-24T06:47:30;11.88;;;5.55;;
16866;SDS011;8550;52.596;13.320;2023-06-24T06:52:33;12.70;;;5.53;;
16866;SDS011;8550;52.596;13.320;2023-06-24T06:57:36;12.05;;;4.55;;
16866;SDS011;8550;52.596;13.320;2023-06-24T07:02:38;10.15;;;4.82;;
16866;SDS011;8550;52.596;13.320;2023-06-24T07:07:43;8.87;;;4.37;;
16866;SDS011;8550;52.596;13.320;2023-06-24T07:12:45;9.17;;;4.50;;
16866;SDS011;8550;52.596;13.320;2023-06-24T07:17:47;10.85;;;4.38;;
16866;SDS011;8550;52.596;13.320;2023-06-24T07:22:51;7.55;;;3.95;;
16866;SDS011;8550;52.596;13.320;2023-06-24T07:27:53;8.97;;;3.37;;
16866;SDS011;8550;52.596;13.320;2023-06-24T07:32:55;7.75;;;3.90;;
16866;SDS011;8550;52.596;13.320;2023-06-24T07:37:58;7.25;;;3.13;;
16866;SDS011;8550;52.596;13.320;2023-06-24T07:43:01;10.23;;;3.60;;
16866;SDS011;8550;52.596;13.320;2023-06-24T07:48:03;7.47;;;3.42;;
16866;SDS011;8550;52.596;13.320;2023-06-24T07:53:08;8.10;;;3.70;;
16866;SDS011;8550;52.596;13.320;2023-06-24T07:58:10;9.43;;;3.83;;
16866;SDS011;8550;52.596;13.320;2023-06-24T08:03:12;7.57;;;3.77;;
16866;SDS011;8550;52.596;13.320;2023-06-24T08:08:15;7.65;;;3.47;;
16866;SDS011;8550;52.596;13.320;2023-06-24T08:13:19;8.82;;;4.00;;
16866;SDS011;8550;52.596;13.320;2023-06-24T08:18:21;7.57;;;3.13;;
16866;SDS011;8550;52.596;13.320;2023-06-24T08:23:25;8.10;;;3.28;;
16866;SDS011;8550;52.596;13.320;2023-06-24T08:28:27;6.20;;;3.17;;
16866;SDS011;8550;52.596;13.320;2023-06-24T08:33:47;5.57;;;3.07;;
16866;SDS011;8550;52.596;13.320;2023-06-24T08:38:54;7.75;;;3.25;;
16866;SDS011;8550;52.596;13.320;2023-06-24T08:49:55;6.77;;;3.30;;
16866;SDS011;8550;52.596;13.320;2023-06-24T08:55:06;8.10;;;3.30;;
16866;SDS011;8550;52.596;13.320;2023-06-24T09:00:12;4.97;;;2.78;;
16866;SDS011;8550;52.596;13.320;2023-06-24T09:05:14;7.22;;;3.28;;
16866;SDS011;8550;52.596;13.320;2023-06-24T09:10:30;7.27;;;3.50;;
16866;SDS011;8550;52.596;13.320;2023-06-24T09:15:33;5.38;;;2.97;;
16866;SDS011;8550;52.596;13.320;2023-06-24T09:20:35;10.10;;;3.30;;
16866;SDS011;8550;52.596;13.320;2023-06-24T09:25:46;8.07;;;3.00;;
16866;SDS011;8550;52.596;13.320;2023-06-24T09:31:06;6.43;;;3.10;;
16866;SDS011;8550;52.596;13.320;2023-06-24T09:36:11;6.78;;;3.25;;
16866;SDS011;8550;52.596;13.320;2023-06-24T09:41:15;8.23;;;2.53;;
16866;SDS011;8550;52.596;13.320;2023-06-24T09:46:17;6.47;;;2.53;;
16866;SDS011;8550;52.596;13.320;2023-06-24T09:51:19;8.70;;;2.58;;
16866;SDS011;8550;52.596;13.320;2023-06-24T09:56:24;6.15;;;2.55;;
16866;SDS011;8550;52.596;13.320;2023-06-24T10:01:26;5.20;;;2.67;;
16866;SDS011;8550;52.596;13.320;2023-06-24T10:06:29;5.40;;;2.72;;
16866;SDS011;8550;52.596;13.320;2023-06-24T10:11:33;5.00;;;2.22;;
16866;SDS011;8550;52.596;13.320;2023-06-24T10:16:35;5.40;;;2.80;;
16866;SDS011;8550;52.596;13.320;2023-06-24T10:21:43;4.97;;;2.67;;
16866;SDS011;8550;52.596;13.320;2023-06-24T10:26:49;6.47;;;2.30;;
16866;SDS011;8550;52.596;13.320;2023-06-24T10:31:52;6.57;;;2.63;;
16866;SDS011;8550;52.596;13.320;2023-06-24T10:36:55;14.13;;;3.00;;
16866;SDS011;8550;52.596;13.320;2023-06-24T10:42:02;5.85;;;2.53;;
16866;SDS011;8550;52.596;13.320;2023-06-24T10:47:28;6.65;;;2.92;;
16866;SDS011;8550;52.596;13.320;2023-06-24T10:52:30;9.57;;;2.67;;
16866;SDS011;8550;52.596;13.320;2023-06-24T10:57:34;5.97;;;2.92;;
16866;SDS011;8550;52.596;13.320;2023-06-24T11:02:37;6.38;;;3.30;;
16866;SDS011;8550;52.596;13.320;2023-06-24T11:07:49;7.60;;;2.87;;
16866;SDS011;8550;52.596;13.320;2023-06-24T11:12:53;4.90;;;2.50;;
16866;SDS011;8550;52.596;13.320;2023-06-24T11:17:54;5.25;;;2.45;;
16866;SDS011;8550;52.596;13.320;2023-06-24T11:22:56;4.57;;;2.33;;
16866;SDS011;8550;52.596;13.320;2023-06-24T11:28:00;6.00;;;2.10;;
16866;SDS011;8550;52.596;13.320;2023-06-24T11:33:01;5.68;;;2.67;;
16866;SDS011;8550;52.596;13.320;2023-06-24T11:38:03;5.70;;;2.85;;
16866;SDS011;8550;52.596;13.320;2023-06-24T11:43:07;5.03;;;2.10;;
16866;SDS011;8550;52.596;13.320;2023-06-24T11:48:09;5.53;;;2.80;;
16866;SDS011;8550;52.596;13.320;2023-06-24T11:53:11;4.30;;;2.13;;
16866;SDS011;8550;52.596;13.320;2023-06-24T11:58:18;4.20;;;2.27;;
16866;SDS011;8550;52.596;13.320;2023-06-24T12:03:22;6.53;;;2.10;;
16866;SDS011;8550;52.596;13.320;2023-06-24T12:08:25;4.85;;;2.42;;
16866;SDS011;8550;52.596;13.320;2023-06-24T12:13:28;3.83;;;2.10;;
16866;SDS011;8550;52.596;13.320;2023-06-24T12:18:30;8.50;;;5.40;;
16866;SDS011;8550;52.596;13.320;2023-06-24T12:23:32;4.78;;;2.78;;
16866;SDS011;8550;52.596;13.320;2023-06-24T12:28:35;7.68;;;2.83;;
16866;SDS011;8550;52.596;13.320;2023-06-24T12:33:37;6.03;;;3.20;;
16866;SDS011;8550;52.596;13.320;2023-06-24T12:38:39;9.85;;;2.97;;
16866;SDS011;8550;52.596;13.320;2023-06-24T12:43:42;6.78;;;2.50;;
16866;SDS011;8550;52.596;13.320;2023-06-24T12:48:44;5.07;;;2.23;;
16866;SDS011;8550;52.596;13.320;2023-06-24T12:53:46;5.57;;;2.78;;
16866;SDS011;8550;52.596;13.320;2023-06-24T12:58:50;8.10;;;2.63;;
16866;SDS011;8550;52.596;13.320;2023-06-24T13:03:51;5.70;;;2.37;;
16866;SDS011;8550;52.596;13.320;2023-06-24T13:08:53;4.53;;;2.33;;
16866;SDS011;8550;52.596;13.320;2023-06-24T13:13:57;9.45;;;2.60;;
16866;SDS011;8550;52.596;13.320;2023-06-24T13:18:59;7.28;;;3.00;;
16866;SDS011;8550;52.596;13.320;2023-06-24T13:24:02;21.17;;;12.53;;
16866;SDS011;8550;52.596;13.320;2023-06-24T13:29:06;8.88;;;2.90;;
16866;SDS011;8550;52.596;13.320;2023-06-24T13:34:08;5.88;;;2.88;;
16866;SDS011;8550;52.596;13.320;2023-06-24T13:39:10;5.77;;;2.50;;
16866;SDS011;8550;52.596;13.320;2023-06-24T13:44:14;6.45;;;2.78;;
16866;SDS011;8550;52.596;13.320;2023-06-24T13:49:17;4.60;;;2.50;;
16866;SDS011;8550;52.596;13.320;2023-06-24T13:54:19;5.27;;;2.40;;
16866;SDS011;8550;52.596;13.320;2023-06-24T13:59:22;6.73;;;2.83;;
16866;SDS011;8550;52.596;13.320;2023-06-24T14:04:24;5.25;;;2.38;;
16866;SDS011;8550;52.596;13.320;2023-06-24T14:09:26;6.35;;;2.72;;
16866;SDS011;8550;52.596;13.320;2023-06-24T14:14:29;4.93;;;2.60;;
16866;SDS011;8550;52.596;13.320;2023-06-24T14:19:32;5.97;;;3.05;;
16866;SDS011;8550;52.596;13.320;2023-06-24T14:24:34;5.40;;;2.90;;
16866;SDS011;8550;52.596;13.320;2023-06-24T14:29:39;5.77;;;2.57;;
16866;SDS011;8550;52.596;13.320;2023-06-24T14:34:41;7.55;;;4.15;;
16866;SDS011;8550;52.596;13.320;2023-06-24T14:39:43;6.40;;;2.65;;
16866;SDS011;8550;52.596;13.320;2023-06-24T14:44:46;5.07;;;2.47;;
16866;SDS011;8550;52.596;13.320;2023-06-24T14:49:48;5.33;;;2.60;;
16866;SDS011;8550;52.596;13.320;2023-06-24T14:54:50;6.13;;;2.72;;
16866;SDS011;8550;52.596;13.320;2023-06-24T14:59:54;5.63;;;2.67;;
16866;SDS011;8550;52.596;13.320;2023-06-24T15:04:56;5.83;;;2.80;;
16866;SDS011;8550;52.596;13.320;2023-06-24T15:09:58;6.05;;;2.53;;
16866;SDS011;8550;52.596;13.320;2023-06-24T15:15:02;6.07;;;2.88;;
16866;SDS011;8550;52.596;13.320;2023-06-24T15:20:04;9.93;;;2.90;;
16866;SDS011;8550;52.596;13.320;2023-06-24T15:25:09;5.93;;;2.58;;
16866;SDS011;8550;52.596;13.320;2023-06-24T15:30:12;5.18;;;2.60;;
16866;SDS011;8550;52.596;13.320;2023-06-24T15:35:14;6.17;;;3.30;;
16866;SDS011;8550;52.596;13.320;2023-06-24T15:40:16;5.30;;;2.77;;
16866;SDS011;8550;52.596;13.320;2023-06-24T15:45:20;5.93;;;2.55;;
16866;SDS011;8550;52.596;13.320;2023-06-24T15:50:22;4.10;;;2.22;;
16866;SDS011;8550;52.596;13.320;2023-06-24T15:55:24;5.33;;;2.70;;
16866;SDS011;8550;52.596;13.320;2023-06-24T16:00:27;6.15;;;3.50;;
16866;SDS011;8550;52.596;13.320;2023-06-24T16:05:29;6.57;;;2.67;;
16866;SDS011;8550;52.596;13.320;2023-06-24T16:10:31;5.00;;;2.40;;
16866;SDS011;8550;52.596;13.320;2023-06-24T16:15:34;6.15;;;2.58;;
16866;SDS011;8550;52.596;13.320;2023-06-24T16:20:36;5.18;;;2.28;;
16866;SDS011;8550;52.596;13.320;2023-06-24T16:25:39;5.63;;;2.70;;
16866;SDS011;8550;52.596;13.320;2023-06-24T16:30:42;9.27;;;5.20;;
16866;SDS011;8550;52.596;13.320;2023-06-24T16:35:44;6.78;;;3.22;;
16866;SDS011;8550;52.596;13.320;2023-06-24T16:40:46;7.35;;;2.90;;
16866;SDS011;8550;52.596;13.320;2023-06-24T16:45:49;7.70;;;2.63;;
16866;SDS011;8550;52.596;13.320;2023-06-24T16:50:51;5.75;;;2.35;;
16866;SDS011;8550;52.596;13.320;2023-06-24T16:55:54;5.30;;;2.25;;
16866;SDS011;8550;52.596;13.320;2023-06-24T17:00:57;5.63;;;2.80;;
16866;SDS011;8550;52.596;13.320;2023-06-24T17:05:59;7.75;;;3.70;;
16866;SDS011;8550;52.596;13.320;2023-06-24T17:11:01;5.68;;;2.60;;
16866;SDS011;8550;52.596;13.320;2023-06-24T17:16:04;7.17;;;2.53;;
16866;SDS011;8550;52.596;13.320;2023-06-24T17:21:06;7.27;;;2.30;;
16866;SDS011;8550;52.596;13.320;2023-06-24T17:26:09;6.22;;;2.72;;
16866;SDS011;8550;52.596;13.320;2023-06-24T17:31:12;4.72;;;2.47;;
16866;SDS011;8550;52.596;13.320;2023-06-24T17:36:14;6.27;;;2.43;;
16866;SDS011;8550;52.596;13.320;2023-06-24T17:41:16;5.63;;;2.58;;
16866;SDS011;8550;52.596;13.320;2023-06-24T17:46:21;5.35;;;2.50;;
16866;SDS011;8550;52.596;13.320;2023-06-24T17:51:22;4.67;;;2.30;;
16866;SDS011;8550;52.596;13.320;2023-06-24T17:56:24;6.40;;;2.63;;
16866;SDS011;8550;52.596;13.320;2023-06-24T18:01:30;7.55;;;2.20;;
16866;SDS011;8550;52.596;13.320;2023-06-24T18:06:32;6.80;;;2.40;;
16866;SDS011;8550;52.596;13.320;2023-06-24T18:11:33;5.17;;;2.53;;
16866;SDS011;8550;52.596;13.320;2023-06-24T18:16:40;5.50;;;2.15;;
16866;SDS011;8550;52.596;13.320;2023-06-24T18:21:48;8.23;;;1.85;;
16866;SDS011;8550;52.596;13.320;2023-06-24T18:26:50;5.00;;;2.37;;
16866;SDS011;8550;52.596;13.320;2023-06-24T18:31:53;16.13;;;10.63;;
16866;SDS011;8550;52.596;13.320;2023-06-24T18:36:55;5.38;;;2.42;;
16866;SDS011;8550;52.596;13.320;2023-06-24T18:41:57;5.40;;;2.40;;
16866;SDS011;8550;52.596;13.320;2023-06-24T18:47:01;4.25;;;2.00;;
16866;SDS011;8550;52.596;13.320;2023-06-24T18:52:03;5.10;;;2.30;;
16866;SDS011;8550;52.596;13.320;2023-06-24T18:57:05;5.47;;;2.53;;
16866;SDS011;8550;52.596;13.320;2023-06-24T19:02:09;7.73;;;3.53;;
16866;SDS011;8550;52.596;13.320;2023-06-24T19:07:11;6.35;;;3.20;;
16866;SDS011;8550;52.596;13.320;2023-06-24T19:12:13;6.15;;;2.63;;
16866;SDS011;8550;52.596;13.320;2023-06-24T19:17:17;5.67;;;2.80;;
16866;SDS011;8550;52.596;13.320;2023-06-24T19:22:19;5.85;;;2.00;;
16866;SDS011;8550;52.596;13.320;2023-06-24T19:27:21;7.38;;;3.15;;
16866;SDS011;8550;52.596;13.320;2023-06-24T19:32:25;6.97;;;2.53;;
16866;SDS011;8550;52.596;13.320;2023-06-24T19:37:28;6.45;;;2.42;;
16866;SDS011;8550;52.596;13.320;2023-06-24T19:42:30;7.47;;;3.70;;
16866;SDS011;8550;52.596;13.320;2023-06-24T19:47:34;8.27;;;2.90;;
16866;SDS011;8550;52.596;13.320;2023-06-24T19:52:36;8.37;;;3.10;;
16866;SDS011;8550;52.596;13.320;2023-06-24T19:57:38;6.43;;;2.90;;
16866;SDS011;8550;52.596;13.320;2023-06-24T20:02:42;5.10;;;2.67;;
16866;SDS011;8550;52.596;13.320;2023-06-24T20:07:44;7.50;;;2.80;;
16866;SDS011;8550;52.596;13.320;2023-06-24T20:12:46;6.05;;;2.90;;
16866;SDS011;8550;52.596;13.320;2023-06-24T20:17:50;6.07;;;3.05;;
16866;SDS011;8550;52.596;13.320;2023-06-24T20:22:51;13.10;;;7.73;;
16866;SDS011;8550;52.596;13.320;2023-06-24T20:27:53;8.40;;;3.33;;
16866;SDS011;8550;52.596;13.320;2023-06-24T20:32:57;6.50;;;2.58;;
16866;SDS011;8550;52.596;13.320;2023-06-24T20:37:59;7.43;;;3.10;;
16866;SDS011;8550;52.596;13.320;2023-06-24T20:43:00;6.03;;;3.07;;
16866;SDS011;8550;52.596;13.320;2023-06-24T20:48:04;6.78;;;3.60;;
16866;SDS011;8550;52.596;13.320;2023-06-24T20:53:06;7.57;;;3.47;;
16866;SDS011;8550;52.596;13.320;2023-06-24T20:58:08;6.57;;;3.10;;
16866;SDS011;8550;52.596;13.320;2023-06-24T21:03:12;12.57;;;3.70;;
16866;SDS011;8550;52.596;13.320;2023-06-24T21:08:14;7.05;;;3.38;;
16866;SDS011;8550;52.596;13.320;2023-06-24T21:13:15;6.73;;;3.50;;
16866;SDS011;8550;52.596;13.320;2023-06-24T21:18:19;7.53;;;3.33;;
16866;SDS011;8550;52.596;13.320;2023-06-24T21:23:21;6.97;;;3.20;;
16866;SDS011;8550;52.596;13.320;2023-06-24T21:28:23;6.57;;;3.60;;
16866;SDS011;8550;52.596;13.320;2023-06-24T21:33:26;7.57;;;3.23;;
16866;SDS011;8550;52.596;13.320;2023-06-24T21:38:28;7.55;;;3.70;;
16866;SDS011;8550;52.596;13.320;2023-06-24T21:43:30;9.77;;;4.50;;
16866;SDS011;8550;52.596;13.320;2023-06-24T21:48:35;8.57;;;4.10;;
16866;SDS011;8550;52.596;13.320;2023-06-24T21:53:37;8.35;;;3.92;;
16866;SDS011;8550;52.596;13.320;2023-06-24T21:58:38;8.60;;;3.95;;
16866;SDS011;8550;52.596;13.320;2023-06-24T22:03:42;11.53;;;4.10;;
16866;SDS011;8550;52.596;13.320;2023-06-24T22:08:44;8.25;;;4.30;;
16866;SDS011;8550;52.596;13.320;2023-06-24T22:13:46;7.97;;;4.05;;
16866;SDS011;8550;52.596;13.320;2023-06-24T22:18:49;9.20;;;4.70;;
16866;SDS011;8550;52.596;13.320;2023-06-24T22:23:51;9.87;;;4.83;;
16866;SDS011;8550;52.596;13.320;2023-06-24T22:28:53;9.10;;;4.53;;
16866;SDS011;8550;52.596;13.320;2023-06-24T22:33:56;8.45;;;4.53;;
16866;SDS011;8550;52.596;13.320;2023-06-24T22:38:58;11.07;;;4.67;;
16866;SDS011;8550;52.596;13.320;2023-06-24T22:44:00;8.15;;;4.72;;
16866;SDS011;8550;52.596;13.320;2023-06-24T22:49:04;9.35;;;4.72;;
16866;SDS011;8550;52.596;13.320;2023-06-24T22:54:06;8.40;;;4.30;;
16866;SDS011;8550;52.596;13.320;2023-06-24T22:59:09;10.18;;;5.03;;
16866;SDS011;8550;52.596;13.320;2023-06-24T23:04:12;12.82;;;6.20;;
16866;SDS011;8550;52.596;13.320;2023-06-24T23:09:15;8.97;;;6.00;;
16866;SDS011;8550;52.596;13.320;2023-06-24T23:14:17;10.50;;;5.50;;
16866;SDS011;8550;52.596;13.320;2023-06-24T23:19:21;9.40;;;5.60;;
16866;SDS011;8550;52.596;13.320;2023-06-24T23:24:25;12.95;;;6.00;;
16866;SDS011;8550;52.596;13.320;2023-06-24T23:29:29;9.90;;;5.77;;
16866;SDS011;8550;52.596;13.320;2023-06-24T23:34:38;11.02;;;5.57;;
16866;SDS011;8550;52.596;13.320;2023-06-24T23:39:40;8.57;;;5.53;;
16866;SDS011;8550;52.596;13.320;2023-06-24T23:44:43;9.70;;;6.23;;
16866;SDS011;8550;52.596;13.320;2023-06-24T23:49:46;11.77;;;5.97;;
16866;SDS011;8550;52.596;13.320;2023-06-24T23:54:48;8.75;;;5.50;;
16866;SDS011;8550;52.596;13.320;2023-06-24T23:59:50;9.40;;;5.07;;
